createdAt,value
2018-11-28T00:00:18.678Z,1003.2
2018-11-28T00:01:19.331Z,1003.2
2018-11-28T00:02:19.985Z,1003.2
2018-11-28T00:03:20.641Z,1003.3
2018-11-28T00:04:21.293Z,1003.3
2018-11-28T00:05:21.946Z,1003.3
2018-11-28T00:06:22.685Z,1003.3
2018-11-28T00:07:23.287Z,1003.2
2018-11-28T00:08:23.941Z,1003.2
2018-11-28T00:09:24.597Z,1003.2
2018-11-28T00:10:25.293Z,1003.3
2018-11-28T00:11:25.946Z,1003.3
2018-11-28T00:12:26.600Z,1003.3
2018-11-28T00:13:27.254Z,1003.3
2018-11-28T00:14:27.916Z,1003.3
2018-11-28T00:15:28.562Z,1003.3
2018-11-28T00:16:29.215Z,1003.2
2018-11-28T00:17:29.870Z,1003.2
2018-11-28T00:18:30.525Z,1003.2
2018-11-28T00:19:31.181Z,1003.2
2018-11-28T00:20:31.837Z,1003.2
2018-11-28T00:21:32.492Z,1003.2
2018-11-28T00:22:33.146Z,1003.3
2018-11-28T00:23:33.799Z,1003.2
2018-11-28T00:24:34.452Z,1003.3
2018-11-28T00:25:35.106Z,1003.3
2018-11-28T00:26:35.761Z,1003.3
2018-11-28T00:27:36.417Z,1003.3
2018-11-28T00:28:37.068Z,1003.4
2018-11-28T00:29:37.722Z,1003.4
2018-11-28T00:30:38.376Z,1003.4
2018-11-28T00:31:39.030Z,1003.3
2018-11-28T00:32:39.685Z,1003.3
2018-11-28T00:33:40.339Z,1003.3
2018-11-28T00:34:40.992Z,1003.3
2018-11-28T00:35:41.645Z,1003.3
2018-11-28T00:36:42.297Z,1003.3
2018-11-28T00:37:42.951Z,1003.3
2018-11-28T00:38:43.605Z,1003.3
2018-11-28T00:39:44.259Z,1003.3
2018-11-28T00:40:44.911Z,1003.3
2018-11-28T00:41:45.567Z,1003.3
2018-11-28T00:42:46.224Z,1003.3
2018-11-28T00:43:46.878Z,1003.3
2018-11-28T00:44:47.533Z,1003.3
2018-11-28T00:45:48.187Z,1003.2
2018-11-28T00:46:48.839Z,1003.3
2018-11-28T00:47:49.492Z,1003.3
2018-11-28T00:48:50.146Z,1003.3
2018-11-28T00:49:50.800Z,1003.3
2018-11-28T00:50:51.455Z,1003.3
2018-11-28T00:51:52.109Z,1003.3
2018-11-28T00:52:52.762Z,1003.3
2018-11-28T00:53:53.417Z,1003.3
2018-11-28T00:54:54.073Z,1003.3
2018-11-28T00:55:54.727Z,1003.3
2018-11-28T00:56:55.383Z,1003.3
2018-11-28T00:57:56.038Z,1003.4
2018-11-28T00:58:56.691Z,1003.4
2018-11-28T00:59:57.344Z,1003.3
2018-11-28T01:00:57.998Z,1003.4
2018-11-28T01:01:58.651Z,1003.3
2018-11-28T01:02:59.306Z,1003.3
2018-11-28T01:03:59.959Z,1003.3
2018-11-28T01:05:00.612Z,1003.3
2018-11-28T01:06:01.268Z,1003.3
2018-11-28T01:07:01.925Z,1003.3
2018-11-28T01:08:02.630Z,1003.3
2018-11-28T01:09:03.284Z,1003.3
2018-11-28T01:10:03.940Z,1003.3
2018-11-28T01:11:04.595Z,1003.4
2018-11-28T01:12:05.253Z,1003.4
2018-11-28T01:13:05.953Z,1003.4
2018-11-28T01:14:06.655Z,1003.4
2018-11-28T01:15:07.309Z,1003.4
2018-11-28T01:16:07.969Z,1003.4
2018-11-28T01:17:08.620Z,1003.4
2018-11-28T01:18:09.270Z,1003.4
2018-11-28T01:19:09.922Z,1003.4
2018-11-28T01:20:10.578Z,1003.4
2018-11-28T01:21:11.232Z,1003.5
2018-11-28T01:22:11.885Z,1003.4
2018-11-28T01:23:12.538Z,1003.5
2018-11-28T01:24:13.191Z,1003.5
2018-11-28T01:25:13.847Z,1003.5
2018-11-28T01:26:14.502Z,1003.5
2018-11-28T01:27:15.157Z,1003.5
2018-11-28T01:28:15.812Z,1003.5
2018-11-28T01:29:16.464Z,1003.5
2018-11-28T01:30:17.116Z,1003.5
2018-11-28T01:31:17.770Z,1003.5
2018-11-28T01:32:18.424Z,1003.5
2018-11-28T01:33:19.080Z,1003.4
2018-11-28T01:34:19.734Z,1003.4
2018-11-28T01:35:20.387Z,1003.5
2018-11-28T01:36:21.042Z,1003.4
2018-11-28T01:37:21.696Z,1003.4
2018-11-28T01:38:22.352Z,1003.5
2018-11-28T01:39:23.007Z,1003.5
2018-11-28T01:40:23.661Z,1003.5
2018-11-28T01:41:24.314Z,1003.4
2018-11-28T01:42:24.970Z,1003.4
2018-11-28T01:43:25.625Z,1003.5
2018-11-28T01:44:26.327Z,1003.5
2018-11-28T01:45:26.980Z,1003.4
2018-11-28T01:46:27.636Z,1003.4
2018-11-28T01:47:28.291Z,1003.5
2018-11-28T01:48:28.942Z,1003.4
2018-11-28T01:49:29.651Z,1003.4
2018-11-28T01:50:30.253Z,1003.4
2018-11-28T01:51:30.910Z,1003.4
2018-11-28T01:52:31.564Z,1003.4
2018-11-28T01:53:32.220Z,1003.4
2018-11-28T01:54:32.874Z,1003.4
2018-11-28T01:55:33.526Z,1003.4
2018-11-28T01:56:34.178Z,1003.4
2018-11-28T01:57:34.834Z,1003.4
2018-11-28T01:58:35.535Z,1003.5
2018-11-28T01:59:36.189Z,1003.4
2018-11-28T02:00:36.843Z,1003.4
2018-11-28T02:01:37.544Z,1003.4
2018-11-28T02:02:38.198Z,1003.4
2018-11-28T02:03:38.852Z,1003.4
2018-11-28T02:04:39.509Z,1003.4
2018-11-28T02:05:40.161Z,1003.4
2018-11-28T02:06:40.817Z,1003.4
2018-11-28T02:07:41.471Z,1003.4
2018-11-28T02:08:42.126Z,1003.4
2018-11-28T02:09:42.779Z,1003.4
2018-11-28T02:10:43.432Z,1003.4
2018-11-28T02:11:44.084Z,1003.4
2018-11-28T02:12:44.738Z,1003.4
2018-11-28T02:13:45.392Z,1003.4
2018-11-28T02:14:46.045Z,1003.4
2018-11-28T02:15:46.701Z,1003.4
2018-11-28T02:16:47.357Z,1003.4
2018-11-28T02:17:48.014Z,1003.5
2018-11-28T02:18:48.669Z,1003.5
2018-11-28T02:19:49.324Z,1003.5
2018-11-28T02:20:49.981Z,1003.5
2018-11-28T02:21:50.634Z,1003.5
2018-11-28T02:22:51.288Z,1003.5
2018-11-28T02:23:51.989Z,1003.4
2018-11-28T02:24:52.643Z,1003.4
2018-11-28T02:25:53.295Z,1003.4
2018-11-28T02:26:53.950Z,1003.4
2018-11-28T02:27:54.606Z,1003.4
2018-11-28T02:28:55.258Z,1003.4
2018-11-28T02:29:55.920Z,1003.4
2018-11-28T02:30:56.566Z,1003.4
2018-11-28T02:31:57.225Z,1003.5
2018-11-28T02:32:57.878Z,1003.5
2018-11-28T02:33:58.533Z,1003.5
2018-11-28T02:34:59.186Z,1003.6
2018-11-28T02:35:59.883Z,1003.5
2018-11-28T02:37:00.540Z,1003.5
2018-11-28T02:38:01.199Z,1003.5
2018-11-28T02:39:01.848Z,1003.5
2018-11-28T02:40:02.503Z,1003.5
2018-11-28T02:41:03.157Z,1003.5
2018-11-28T02:42:03.813Z,1003.5
2018-11-28T02:43:04.466Z,1003.4
2018-11-28T02:44:05.120Z,1003.4
2018-11-28T02:45:05.773Z,1003.4
2018-11-28T02:46:06.429Z,1003.3
2018-11-28T02:47:07.084Z,1003.3
2018-11-28T02:48:07.736Z,1003.3
2018-11-28T02:49:08.397Z,1003.3
2018-11-28T02:50:09.043Z,1003.3
2018-11-28T02:51:09.700Z,1003.3
2018-11-28T02:52:10.356Z,1003.2
2018-11-28T02:53:11.005Z,1003.2
2018-11-28T02:54:11.659Z,1003.2
2018-11-28T02:55:12.315Z,1003.2
2018-11-28T02:56:12.969Z,1003.2
2018-11-28T02:57:13.621Z,1003.2
2018-11-28T02:58:14.276Z,1003.3
2018-11-28T02:59:14.929Z,1003.3
2018-11-28T03:00:15.581Z,1003.3
2018-11-28T03:01:16.234Z,1003.3
2018-11-28T03:02:16.890Z,1003.3
2018-11-28T03:03:17.592Z,1003.2
2018-11-28T03:04:18.245Z,1003.3
2018-11-28T03:05:18.963Z,1003.3
2018-11-28T03:06:19.581Z,1003.3
2018-11-28T03:07:20.235Z,1003.3
2018-11-28T03:08:20.895Z,1003.3
2018-11-28T03:09:21.543Z,1003.3
2018-11-28T03:10:22.197Z,1003.3
2018-11-28T03:11:22.857Z,1003.2
2018-11-28T03:12:23.559Z,1003.2
2018-11-28T03:13:24.203Z,1003.2
2018-11-28T03:14:24.857Z,1003.2
2018-11-28T03:15:25.512Z,1003.2
2018-11-28T03:16:26.165Z,1003.3
2018-11-28T03:17:26.820Z,1003.2
2018-11-28T03:18:27.474Z,1003.2
2018-11-28T03:19:28.137Z,1003.2
2018-11-28T03:20:28.790Z,1003.2
2018-11-28T03:21:29.445Z,1003.2
2018-11-28T03:22:30.102Z,1003.2
2018-11-28T03:23:30.759Z,1003.2
2018-11-28T03:24:31.410Z,1003.2
2018-11-28T03:25:32.063Z,1003.2
2018-11-28T03:26:32.716Z,1003.3
2018-11-28T03:27:33.369Z,1003.3
2018-11-28T03:28:34.031Z,1003.3
2018-11-28T03:29:34.675Z,1003.3
2018-11-28T03:30:35.333Z,1003.4
2018-11-28T03:31:35.983Z,1003.3
2018-11-28T03:32:36.645Z,1003.4
2018-11-28T03:33:37.340Z,1003.3
2018-11-28T03:34:37.995Z,1003.3
2018-11-28T03:35:38.652Z,1003.3
2018-11-28T03:36:39.303Z,1003.3
2018-11-28T03:37:39.957Z,1003.3
2018-11-28T03:38:40.608Z,1003.3
2018-11-28T03:39:41.262Z,1003.3
2018-11-28T03:40:41.921Z,1003.3
2018-11-28T03:41:42.569Z,1003.3
2018-11-28T03:42:43.223Z,1003.3
2018-11-28T03:43:43.879Z,1003.4
2018-11-28T03:44:44.539Z,1003.4
2018-11-28T03:45:45.235Z,1003.4
2018-11-28T03:46:45.935Z,1003.4
2018-11-28T03:47:46.587Z,1003.4
2018-11-28T03:48:47.242Z,1003.4
2018-11-28T03:49:47.898Z,1003.4
2018-11-28T03:50:48.551Z,1003.4
2018-11-28T03:51:49.254Z,1003.4
2018-11-28T03:52:49.920Z,1003.3
2018-11-28T03:53:50.558Z,1003.4
2018-11-28T03:54:51.211Z,1003.3
2018-11-28T03:55:51.866Z,1003.4
2018-11-28T03:56:52.519Z,1003.4
2018-11-28T03:57:53.172Z,1003.4
2018-11-28T03:58:53.871Z,1003.4
2018-11-28T03:59:54.526Z,1003.4
2018-11-28T04:00:55.181Z,1003.4
2018-11-28T04:01:55.840Z,1003.4
2018-11-28T04:02:56.538Z,1003.4
2018-11-28T04:03:57.197Z,1003.4
2018-11-28T04:04:57.894Z,1003.3
2018-11-28T04:05:58.549Z,1003.3
2018-11-28T04:06:59.205Z,1003.3
2018-11-28T04:07:59.859Z,1003.3
2018-11-28T04:09:00.513Z,1003.3
2018-11-28T04:10:01.166Z,1003.3
2018-11-28T04:11:01.818Z,1003.3
2018-11-28T04:12:02.473Z,1003.3
2018-11-28T04:13:03.128Z,1003.4
2018-11-28T04:14:03.782Z,1003.3
2018-11-28T04:15:04.435Z,1003.3
2018-11-28T04:16:05.089Z,1003.3
2018-11-28T04:17:05.791Z,1003.3
2018-11-28T04:18:06.444Z,1003.3
2018-11-28T04:19:07.100Z,1003.3
2018-11-28T04:20:07.757Z,1003.4
2018-11-28T04:21:08.412Z,1003.4
2018-11-28T04:22:09.065Z,1003.3
2018-11-28T04:23:09.716Z,1003.4
2018-11-28T04:24:10.368Z,1003.4
2018-11-28T04:25:11.020Z,1003.4
2018-11-28T04:26:11.677Z,1003.3
2018-11-28T04:27:12.375Z,1003.3
2018-11-28T04:28:13.029Z,1003.3
2018-11-28T04:29:13.682Z,1003.4
2018-11-28T04:30:14.336Z,1003.3
2018-11-28T04:31:14.990Z,1003.3
2018-11-28T04:32:15.646Z,1003.3
2018-11-28T04:33:16.346Z,1003.3
2018-11-28T04:34:17.002Z,1003.4
2018-11-28T04:35:17.656Z,1003.4
2018-11-28T04:36:18.311Z,1003.4
2018-11-28T04:37:18.963Z,1003.3
2018-11-28T04:38:19.616Z,1003.3
2018-11-28T04:39:20.268Z,1003.3
2018-11-28T04:40:20.931Z,1003.3
2018-11-28T04:41:21.577Z,1003.3
2018-11-28T04:42:22.231Z,1003.3
2018-11-28T04:43:22.886Z,1003.4
2018-11-28T04:44:23.538Z,1003.4
2018-11-28T04:45:24.193Z,1003.3
2018-11-28T04:46:24.895Z,1003.4
2018-11-28T04:47:25.547Z,1003.3
2018-11-28T04:48:26.202Z,1003.3
2018-11-28T04:49:26.863Z,1003.3
2018-11-28T04:50:27.508Z,1003.3
2018-11-28T04:51:28.160Z,1003.3
2018-11-28T04:52:28.859Z,1003.3
2018-11-28T04:53:29.513Z,1003.3
2018-11-28T04:54:30.218Z,1003.3
2018-11-28T04:55:30.867Z,1003.3
2018-11-28T04:56:31.525Z,1003.3
2018-11-28T04:57:32.172Z,1003.2
2018-11-28T04:58:32.830Z,1003.2
2018-11-28T04:59:33.525Z,1003.3
2018-11-28T05:00:34.223Z,1003.3
2018-11-28T05:01:34.878Z,1003.3
2018-11-28T05:02:35.532Z,1003.3
2018-11-28T05:03:37.003Z,1003.2
2018-11-28T05:04:37.686Z,1003.2
2018-11-28T05:05:38.338Z,1003.2
2018-11-28T05:06:38.992Z,1003.2
2018-11-28T05:07:39.645Z,1003.3
2018-11-28T05:08:40.296Z,1003.3
2018-11-28T05:09:40.949Z,1003.3
2018-11-28T05:10:41.604Z,1003.3
2018-11-28T05:11:42.258Z,1003.3
2018-11-28T05:12:42.917Z,1003.3
2018-11-28T05:13:43.569Z,1003.3
2018-11-28T05:14:44.266Z,1003.3
2018-11-28T05:15:44.918Z,1003.3
2018-11-28T05:16:45.571Z,1003.3
2018-11-28T05:17:46.223Z,1003.3
2018-11-28T05:18:46.927Z,1003.4
2018-11-28T05:19:47.581Z,1003.3
2018-11-28T05:20:48.235Z,1003.3
2018-11-28T05:21:48.933Z,1003.4
2018-11-28T05:22:49.590Z,1003.4
2018-11-28T05:23:50.239Z,1003.4
2018-11-28T05:24:50.893Z,1003.4
2018-11-28T05:25:51.550Z,1003.4
2018-11-28T05:26:52.247Z,1003.4
2018-11-28T05:27:52.903Z,1003.4
2018-11-28T05:28:53.557Z,1003.4
2018-11-28T05:29:54.215Z,1003.4
2018-11-28T05:30:54.914Z,1003.4
2018-11-28T05:31:55.568Z,1003.5
2018-11-28T05:32:56.221Z,1003.5
2018-11-28T05:33:56.921Z,1003.5
2018-11-28T05:34:57.573Z,1003.5
2018-11-28T05:35:58.225Z,1003.5
2018-11-28T05:36:58.880Z,1003.5
2018-11-28T05:37:59.531Z,1003.5
2018-11-28T05:39:00.183Z,1003.5
2018-11-28T05:40:00.835Z,1003.5
2018-11-28T05:41:01.490Z,1003.5
2018-11-28T05:42:02.145Z,1003.5
2018-11-28T05:43:02.800Z,1003.5
2018-11-28T05:44:03.502Z,1003.5
2018-11-28T05:45:04.161Z,1003.4
2018-11-28T05:46:04.812Z,1003.5
2018-11-28T05:47:05.469Z,1003.5
2018-11-28T05:48:06.120Z,1003.5
2018-11-28T05:49:06.772Z,1003.5
2018-11-28T05:50:07.425Z,1003.4
2018-11-28T05:51:08.079Z,1003.4
2018-11-28T05:52:08.735Z,1003.5
2018-11-28T05:53:09.387Z,1003.4
2018-11-28T05:54:10.041Z,1003.5
2018-11-28T05:55:10.694Z,1003.5
2018-11-28T05:56:11.349Z,1003.5
2018-11-28T05:57:12.006Z,1003.5
2018-11-28T05:58:12.661Z,1003.6
2018-11-28T05:59:13.309Z,1003.6
2018-11-28T06:00:13.963Z,1003.5
2018-11-28T06:01:14.616Z,1003.6
2018-11-28T06:02:15.269Z,1003.6
2018-11-28T06:03:15.930Z,1003.6
2018-11-28T06:04:16.575Z,1003.5
2018-11-28T06:05:17.230Z,1003.6
2018-11-28T06:06:17.883Z,1003.5
2018-11-28T06:07:18.536Z,1003.5
2018-11-28T06:08:19.191Z,1003.6
2018-11-28T06:09:19.845Z,1003.6
2018-11-28T06:10:20.500Z,1003.6
2018-11-28T06:11:21.151Z,1003.6
2018-11-28T06:12:21.804Z,1003.6
2018-11-28T06:13:22.461Z,1003.6
2018-11-28T06:14:23.112Z,1003.6
2018-11-28T06:15:23.764Z,1003.6
2018-11-28T06:16:24.417Z,1003.6
2018-11-28T06:17:25.072Z,1003.6
2018-11-28T06:18:25.726Z,1003.6
2018-11-28T06:19:26.385Z,1003.7
2018-11-28T06:20:27.082Z,1003.7
2018-11-28T06:21:27.738Z,1003.7
2018-11-28T06:22:28.394Z,1003.8
2018-11-28T06:23:29.044Z,1003.8
2018-11-28T06:24:29.697Z,1003.8
2018-11-28T06:25:30.352Z,1003.8
2018-11-28T06:26:31.004Z,1003.8
2018-11-28T06:27:31.656Z,1003.7
2018-11-28T06:28:32.309Z,1003.7
2018-11-28T06:29:32.964Z,1003.7
2018-11-28T06:30:33.618Z,1003.7
2018-11-28T06:31:34.272Z,1003.8
2018-11-28T06:32:34.934Z,1003.7
2018-11-28T06:33:35.626Z,1003.8
2018-11-28T06:34:36.283Z,1003.7
2018-11-28T06:35:36.933Z,1003.8
2018-11-28T06:36:37.634Z,1003.8
2018-11-28T06:37:38.288Z,1003.8
2018-11-28T06:38:38.988Z,1003.8
2018-11-28T06:39:39.643Z,1003.8
2018-11-28T06:40:40.298Z,1003.7
2018-11-28T06:41:40.953Z,1003.8
2018-11-28T06:42:41.609Z,1003.7
2018-11-28T06:43:42.311Z,1003.7
2018-11-28T06:44:42.965Z,1003.6
2018-11-28T06:45:43.621Z,1003.7
2018-11-28T06:46:44.275Z,1003.7
2018-11-28T06:47:44.928Z,1003.7
2018-11-28T06:48:45.584Z,1003.7
2018-11-28T06:49:46.248Z,1003.7
2018-11-28T06:50:46.947Z,1003.7
2018-11-28T06:51:47.643Z,1003.7
2018-11-28T06:52:48.302Z,1003.7
2018-11-28T06:53:48.955Z,1003.8
2018-11-28T06:54:49.612Z,1003.8
2018-11-28T06:55:50.270Z,1003.7
2018-11-28T06:56:50.927Z,1003.8
2018-11-28T06:57:51.583Z,1003.8
2018-11-28T06:58:52.242Z,1003.8
2018-11-28T06:59:52.897Z,1003.8
2018-11-28T07:00:53.600Z,1003.8
2018-11-28T07:01:54.256Z,1003.8
2018-11-28T07:02:54.915Z,1003.8
2018-11-28T07:03:55.571Z,1003.8
2018-11-28T07:04:56.228Z,1003.9
2018-11-28T07:05:56.885Z,1003.8
2018-11-28T07:06:57.541Z,1003.9
2018-11-28T07:07:58.199Z,1003.9
2018-11-28T07:08:58.859Z,1004.0
2018-11-28T07:09:59.515Z,1004.0
2018-11-28T07:11:00.171Z,1004.0
2018-11-28T07:12:00.831Z,1004.0
2018-11-28T07:13:01.488Z,1004.0
2018-11-28T07:14:02.145Z,1004.0
2018-11-28T07:15:02.805Z,1004.0
2018-11-28T07:16:03.460Z,1004.0
2018-11-28T07:17:04.120Z,1004.0
2018-11-28T07:18:04.778Z,1004.0
2018-11-28T07:19:05.486Z,1004.0
2018-11-28T07:20:06.141Z,1004.0
2018-11-28T07:21:06.799Z,1004.1
2018-11-28T07:22:07.477Z,1004.0
2018-11-28T07:23:08.115Z,1004.1
2018-11-28T07:24:08.773Z,1004.1
2018-11-28T07:25:09.431Z,1004.1
2018-11-28T07:26:10.089Z,1004.1
2018-11-28T07:27:10.745Z,1004.1
2018-11-28T07:28:11.405Z,1004.1
2018-11-28T07:29:12.061Z,1004.1
2018-11-28T07:30:12.719Z,1004.1
2018-11-28T07:31:13.378Z,1004.0
2018-11-28T07:32:14.035Z,1004.0
2018-11-28T07:33:14.695Z,1004.1
2018-11-28T07:34:15.352Z,1004.1
2018-11-28T07:35:16.014Z,1004.1
2018-11-28T07:36:16.668Z,1004.1
2018-11-28T07:37:17.327Z,1004.1
2018-11-28T07:38:18.031Z,1004.1
2018-11-28T07:39:18.687Z,1004.1
2018-11-28T07:40:19.361Z,1004.0
2018-11-28T07:41:19.999Z,1004.1
2018-11-28T07:42:20.663Z,1004.1
2018-11-28T07:43:21.317Z,1004.1
2018-11-28T07:44:21.999Z,1004.1
2018-11-28T07:45:22.682Z,1004.1
2018-11-28T07:46:23.336Z,1004.1
2018-11-28T07:47:23.992Z,1004.1
2018-11-28T07:48:24.649Z,1004.1
2018-11-28T07:49:25.309Z,1004.1
2018-11-28T07:50:25.968Z,1004.1
2018-11-28T07:51:26.626Z,1004.2
2018-11-28T07:52:27.282Z,1004.1
2018-11-28T07:53:27.941Z,1004.2
2018-11-28T07:54:28.600Z,1004.1
2018-11-28T07:55:29.261Z,1004.1
2018-11-28T07:56:29.918Z,1004.2
2018-11-28T07:57:30.576Z,1004.2
2018-11-28T07:58:31.236Z,1004.2
2018-11-28T07:59:31.940Z,1004.2
2018-11-28T08:00:32.600Z,1004.2
2018-11-28T08:01:33.260Z,1004.1
2018-11-28T08:02:33.919Z,1004.2
2018-11-28T08:03:34.613Z,1004.2
2018-11-28T08:04:35.261Z,1004.2
2018-11-28T08:05:35.920Z,1004.1
2018-11-28T08:06:36.580Z,1004.2
2018-11-28T08:07:37.240Z,1004.2
2018-11-28T08:08:37.907Z,1004.2
2018-11-28T08:09:38.603Z,1004.2
2018-11-28T08:10:39.262Z,1004.1
2018-11-28T08:11:39.922Z,1004.1
2018-11-28T08:12:40.583Z,1004.2
2018-11-28T08:13:41.238Z,1004.2
2018-11-28T08:14:41.895Z,1004.2
2018-11-28T08:15:42.553Z,1004.2
2018-11-28T08:16:43.211Z,1004.2
2018-11-28T08:17:43.870Z,1004.2
2018-11-28T08:18:44.527Z,1004.2
2018-11-28T08:19:45.185Z,1004.2
2018-11-28T08:20:45.843Z,1004.2
2018-11-28T08:21:46.502Z,1004.2
2018-11-28T08:22:47.158Z,1004.2
2018-11-28T08:23:47.818Z,1004.2
2018-11-28T08:24:48.475Z,1004.1
2018-11-28T08:25:49.133Z,1004.2
2018-11-28T08:26:49.792Z,1004.2
2018-11-28T08:27:50.450Z,1004.2
2018-11-28T08:28:51.111Z,1004.1
2018-11-28T08:29:51.770Z,1004.1
2018-11-28T08:30:52.428Z,1004.1
2018-11-28T08:31:53.086Z,1004.1
2018-11-28T08:32:53.789Z,1004.1
2018-11-28T08:33:54.448Z,1004.1
2018-11-28T08:34:55.108Z,1004.1
2018-11-28T08:35:55.767Z,1004.1
2018-11-28T08:36:56.428Z,1004.1
2018-11-28T08:37:57.084Z,1004.1
2018-11-28T08:38:57.788Z,1004.1
2018-11-28T08:39:58.448Z,1004.2
2018-11-28T08:40:59.108Z,1004.1
2018-11-28T08:41:59.767Z,1004.1
2018-11-28T08:43:00.426Z,1004.1
2018-11-28T08:44:01.085Z,1004.1
2018-11-28T08:45:01.746Z,1004.1
2018-11-28T08:46:02.406Z,1004.0
2018-11-28T08:47:03.066Z,1004.1
2018-11-28T08:48:03.725Z,1004.1
2018-11-28T08:49:04.382Z,1004.0
2018-11-28T08:50:05.046Z,1004.0
2018-11-28T08:51:05.746Z,1004.0
2018-11-28T08:52:06.448Z,1004.0
2018-11-28T08:53:07.058Z,1004.0
2018-11-28T08:54:07.764Z,1004.0
2018-11-28T08:55:08.421Z,1004.0
2018-11-28T08:56:09.077Z,1004.0
2018-11-28T08:57:09.736Z,1004.1
2018-11-28T08:58:10.394Z,1004.0
2018-11-28T08:59:11.052Z,1004.1
2018-11-28T09:00:11.711Z,1004.0
2018-11-28T09:01:12.368Z,1004.0
2018-11-28T09:02:13.039Z,1004.1
2018-11-28T09:03:13.730Z,1004.1
2018-11-28T09:04:14.388Z,1004.1
2018-11-28T09:05:15.045Z,1004.1
2018-11-28T09:06:15.706Z,1004.1
2018-11-28T09:07:16.361Z,1004.1
2018-11-28T09:08:17.020Z,1004.1
2018-11-28T09:09:17.678Z,1004.1
2018-11-28T09:10:18.336Z,1004.2
2018-11-28T09:11:18.993Z,1004.2
2018-11-28T09:12:19.652Z,1004.1
2018-11-28T09:13:20.310Z,1004.1
2018-11-28T09:14:21.014Z,1004.1
2018-11-28T09:15:21.674Z,1004.2
2018-11-28T09:16:22.332Z,1004.1
2018-11-28T09:17:22.991Z,1004.2
2018-11-28T09:18:23.649Z,1004.1
2018-11-28T09:19:24.310Z,1004.1
2018-11-28T09:20:24.964Z,1004.2
2018-11-28T09:21:25.622Z,1004.1
2018-11-28T09:22:26.281Z,1004.1
2018-11-28T09:23:26.941Z,1004.1
2018-11-28T09:24:27.643Z,1004.1
2018-11-28T09:25:28.300Z,1004.1
2018-11-28T09:26:28.959Z,1004.1
2018-11-28T09:27:29.614Z,1004.1
2018-11-28T09:28:30.271Z,1004.2
2018-11-28T09:29:30.928Z,1004.1
2018-11-28T09:30:31.587Z,1004.2
2018-11-28T09:31:32.261Z,1004.2
2018-11-28T09:32:32.948Z,1004.1
2018-11-28T09:33:33.607Z,1004.2
2018-11-28T09:34:34.264Z,1004.1
2018-11-28T09:35:34.921Z,1004.1
2018-11-28T09:36:35.579Z,1004.1
2018-11-28T09:37:36.238Z,1004.1
2018-11-28T09:38:36.895Z,1004.2
2018-11-28T09:39:37.554Z,1004.2
2018-11-28T09:40:38.212Z,1004.2
2018-11-28T09:41:38.870Z,1004.2
2018-11-28T09:42:39.527Z,1004.2
2018-11-28T09:43:40.187Z,1004.2
2018-11-28T09:44:40.846Z,1004.2
2018-11-28T09:45:41.504Z,1004.2
2018-11-28T09:46:42.162Z,1004.2
2018-11-28T09:47:42.820Z,1004.1
2018-11-28T09:48:43.522Z,1004.2
2018-11-28T09:49:44.181Z,1004.2
2018-11-28T09:50:44.839Z,1004.2
2018-11-28T09:51:45.498Z,1004.1
2018-11-28T09:52:46.163Z,1004.1
2018-11-28T09:53:46.861Z,1004.1
2018-11-28T09:54:47.517Z,1004.0
2018-11-28T09:55:48.179Z,1004.1
2018-11-28T09:56:48.886Z,1004.1
2018-11-28T09:57:49.586Z,1004.0
2018-11-28T09:58:50.245Z,1004.0
2018-11-28T09:59:50.948Z,1004.0
2018-11-28T10:00:51.608Z,1004.0
2018-11-28T10:01:52.269Z,1004.0
2018-11-28T10:02:52.962Z,1004.0
2018-11-28T10:03:53.594Z,1004.0
2018-11-28T10:04:54.250Z,1004.0
2018-11-28T10:05:54.914Z,1004.0
2018-11-28T10:06:55.570Z,1004.0
2018-11-28T10:07:56.273Z,1004.0
2018-11-28T10:08:56.932Z,1003.9
2018-11-28T10:09:57.590Z,1004.0
2018-11-28T10:10:58.250Z,1004.0
2018-11-28T10:11:58.907Z,1004.0
2018-11-28T10:12:59.571Z,1003.9
2018-11-28T10:14:00.226Z,1004.0
2018-11-28T10:15:00.893Z,1003.9
2018-11-28T10:16:01.928Z,1003.9
2018-11-28T10:17:02.561Z,1003.9
2018-11-28T10:18:03.266Z,1003.9
2018-11-28T10:19:03.925Z,1003.9
2018-11-28T10:20:04.585Z,1003.9
2018-11-28T10:21:05.245Z,1003.9
2018-11-28T10:22:05.900Z,1003.9
2018-11-28T10:23:06.563Z,1003.9
2018-11-28T10:24:07.266Z,1003.8
2018-11-28T10:25:07.922Z,1003.8
2018-11-28T10:26:08.583Z,1003.8
2018-11-28T10:27:09.242Z,1003.9
2018-11-28T10:28:09.900Z,1003.9
2018-11-28T10:29:10.560Z,1003.9
2018-11-28T10:30:11.219Z,1003.8
2018-11-28T10:31:11.876Z,1003.8
2018-11-28T10:32:12.534Z,1003.8
2018-11-28T10:33:13.194Z,1003.9
2018-11-28T10:34:13.851Z,1003.9
2018-11-28T10:35:14.566Z,1003.8
2018-11-28T10:36:15.180Z,1003.8
2018-11-28T10:37:15.840Z,1003.8
2018-11-28T10:38:16.499Z,1003.7
2018-11-28T10:39:17.161Z,1003.7
2018-11-28T10:40:17.874Z,1003.7
2018-11-28T10:41:18.532Z,1003.7
2018-11-28T10:42:19.237Z,1003.6
2018-11-28T10:43:19.898Z,1003.7
2018-11-28T10:44:20.557Z,1003.7
2018-11-28T10:45:21.216Z,1003.7
2018-11-28T10:46:21.877Z,1003.6
2018-11-28T10:47:22.536Z,1003.7
2018-11-28T10:48:23.198Z,1003.6
2018-11-28T10:49:23.854Z,1003.6
2018-11-28T10:50:24.517Z,1003.6
2018-11-28T10:51:25.229Z,1003.6
2018-11-28T10:52:25.854Z,1003.6
2018-11-28T10:53:26.514Z,1003.6
2018-11-28T10:54:27.221Z,1003.6
2018-11-28T10:55:27.881Z,1003.6
2018-11-28T10:56:28.548Z,1003.5
2018-11-28T10:57:29.204Z,1003.6
2018-11-28T10:58:29.912Z,1003.6
2018-11-28T10:59:30.571Z,1003.6
2018-11-28T11:00:31.230Z,1003.5
2018-11-28T11:01:31.892Z,1003.5
2018-11-28T11:02:32.595Z,1003.6
2018-11-28T11:03:33.254Z,1003.6
2018-11-28T11:04:33.912Z,1003.6
2018-11-28T11:05:34.571Z,1003.6
2018-11-28T11:06:35.231Z,1003.6
2018-11-28T11:07:35.890Z,1003.6
2018-11-28T11:08:36.549Z,1003.6
2018-11-28T11:09:37.208Z,1003.7
2018-11-28T11:10:37.869Z,1003.7
2018-11-28T11:11:38.528Z,1003.7
2018-11-28T11:12:39.186Z,1003.6
2018-11-28T11:13:39.848Z,1003.6
2018-11-28T11:14:40.508Z,1003.5
2018-11-28T11:15:41.168Z,1003.5
2018-11-28T11:16:41.829Z,1003.5
2018-11-28T11:17:42.533Z,1003.6
2018-11-28T11:18:43.194Z,1003.5
2018-11-28T11:19:43.853Z,1003.4
2018-11-28T11:20:44.513Z,1003.5
2018-11-28T11:21:45.399Z,1003.5
2018-11-28T11:22:46.010Z,1003.5
2018-11-28T11:23:46.673Z,1003.5
2018-11-28T11:24:47.333Z,1003.4
2018-11-28T11:25:47.994Z,1003.4
2018-11-28T11:26:48.655Z,1003.3
2018-11-28T11:27:49.315Z,1003.3
2018-11-28T11:28:49.976Z,1003.4
2018-11-28T11:29:50.635Z,1003.4
2018-11-28T11:30:51.341Z,1003.3
2018-11-28T11:31:52.002Z,1003.4
2018-11-28T11:32:52.661Z,1003.3
2018-11-28T11:33:53.321Z,1003.3
2018-11-28T11:34:53.980Z,1003.3
2018-11-28T11:35:54.641Z,1003.3
2018-11-28T11:36:55.317Z,1003.3
2018-11-28T11:37:55.972Z,1003.3
2018-11-28T11:38:56.636Z,1003.3
2018-11-28T11:39:57.342Z,1003.3
2018-11-28T11:40:58.003Z,1003.3
2018-11-28T11:41:58.664Z,1003.3
2018-11-28T11:42:59.325Z,1003.3
2018-11-28T11:43:59.993Z,1003.3
2018-11-28T11:45:00.646Z,1003.3
2018-11-28T11:46:01.311Z,1003.3
2018-11-28T11:47:01.967Z,1003.2
2018-11-28T11:48:02.628Z,1003.2
2018-11-28T11:49:03.289Z,1003.3
2018-11-28T11:50:03.948Z,1003.3
2018-11-28T11:51:04.608Z,1003.2
2018-11-28T11:52:05.267Z,1003.3
2018-11-28T11:53:05.927Z,1003.3
2018-11-28T11:54:06.587Z,1003.3
2018-11-28T11:55:07.246Z,1003.3
2018-11-28T11:56:07.910Z,1003.3
2018-11-28T11:57:08.612Z,1003.3
2018-11-28T11:58:09.271Z,1003.3
2018-11-28T11:59:09.930Z,1003.3
2018-11-28T12:00:10.591Z,1003.3
2018-11-28T12:01:11.251Z,1003.3
2018-11-28T12:02:11.918Z,1003.3
2018-11-28T12:03:12.573Z,1003.3
2018-11-28T12:04:13.230Z,1003.3
2018-11-28T12:05:13.892Z,1003.3
2018-11-28T12:06:14.552Z,1003.3
2018-11-28T12:07:15.212Z,1003.3
2018-11-28T12:08:15.874Z,1003.3
2018-11-28T12:09:16.533Z,1003.3
2018-11-28T12:10:17.192Z,1003.3
2018-11-28T12:11:17.856Z,1003.3
2018-11-28T12:12:18.513Z,1003.2
2018-11-28T12:13:19.174Z,1003.3
2018-11-28T12:14:19.835Z,1003.3
2018-11-28T12:15:20.494Z,1003.3
2018-11-28T12:16:21.664Z,1003.2
2018-11-28T12:17:22.386Z,1003.3
2018-11-28T12:18:23.093Z,1003.2
2018-11-28T12:19:23.805Z,1003.2
2018-11-28T12:20:24.431Z,1003.2
2018-11-28T12:21:25.092Z,1003.2
2018-11-28T12:22:25.753Z,1003.1
2018-11-28T12:23:26.414Z,1003.1
2018-11-28T12:24:27.076Z,1003.1
2018-11-28T12:25:27.734Z,1003.1
2018-11-28T12:26:28.394Z,1003.1
2018-11-28T12:27:29.056Z,1003.1
2018-11-28T12:28:29.718Z,1003.1
2018-11-28T12:29:30.421Z,1003.1
2018-11-28T12:30:31.080Z,1003.2
2018-11-28T12:31:31.739Z,1003.1
2018-11-28T12:32:32.402Z,1003.1
2018-11-28T12:33:33.062Z,1003.1
2018-11-28T12:34:33.722Z,1003.1
2018-11-28T12:35:34.383Z,1003.2
2018-11-28T12:36:35.043Z,1003.2